Time;durP1;ratioP1;P1;durP2;ratioP2;P2;SDS_P1;SDS_P2;PMS_P1;PMS_P2;Temp;Humidity;BMP_temperature;BMP_pressure;BME280_temperature;BME280_humidity;BME280_pressure;Samples;Min_cycle;Max_cycle;Signal;HPM_P1;HPM_P2
2022/11/06 00:00:14;;;;;;;12.90;5.88;;;11.00;85.50;;;;;;5024521;28;20025;-74
2022/11/06 00:02:40;;;;;;;18.33;6.63;;;11.00;85.40;;;;;;5021643;28;20038;-76
2022/11/06 00:07:51;;;;;;;18.17;6.57;;;11.00;85.50;;;;;;5025142;28;20032;-75
2022/11/06 00:10:17;;;;;;;14.82;6.05;;;11.00;85.50;;;;;;5021699;28;20026;-73
2022/11/06 00:12:43;;;;;;;14.60;6.03;;;11.00;85.40;;;;;;5024694;28;20029;-74
2022/11/06 00:15:10;;;;;;;15.02;6.18;;;11.00;85.40;;;;;;5022231;28;20041;-73
2022/11/06 00:17:36;;;;;;;13.85;6.22;;;11.00;85.50;;;;;;5025366;28;20033;-73
2022/11/06 00:20:03;;;;;;;14.23;7.05;;;11.00;85.80;;;;;;5021134;28;20800;-73
2022/11/06 00:22:32;;;;;;;13.98;6.93;;;11.00;85.90;;;;;;5013492;28;20042;-73
2022/11/06 00:24:58;;;;;;;13.65;5.97;;;10.90;86.00;;;;;;5017728;28;20030;-79
2022/11/06 00:27:24;;;;;;;16.40;5.82;;;11.00;86.30;;;;;;5022705;28;20041;-74
2022/11/06 00:29:50;;;;;;;14.35;7.00;;;11.00;86.30;;;;;;5024246;28;20030;-73
2022/11/06 00:32:16;;;;;;;15.57;6.47;;;10.90;86.30;;;;;;5015831;28;20501;-75
2022/11/06 00:34:41;;;;;;;18.10;5.88;;;10.90;86.40;;;;;;5016213;28;20474;-74
2022/11/06 00:37:07;;;;;;;16.42;6.60;;;11.00;86.20;;;;;;5020014;28;20033;-74
2022/11/06 00:39:32;;;;;;;14.90;6.18;;;10.90;86.10;;;;;;5024331;28;20052;-74
2022/11/06 00:41:58;;;;;;;12.13;6.20;;;11.00;86.10;;;;;;5023325;28;20057;-73
2022/11/06 00:44:24;;;;;;;14.70;5.43;;;11.00;86.20;;;;;;5016863;28;20038;-75
2022/11/06 00:46:49;;;;;;;16.60;6.68;;;10.90;86.20;;;;;;5017342;28;20038;-73
2022/11/06 00:49:15;;;;;;;15.05;6.28;;;11.00;86.30;;;;;;5017036;28;20038;-74
2022/11/06 00:51:41;;;;;;;9.18;6.00;;;10.90;86.30;;;;;;5017111;28;20463;-73
2022/11/06 00:54:10;;;;;;;15.07;5.97;;;10.90;86.50;;;;;;5016350;28;20490;-75
2022/11/06 00:56:36;;;;;;;13.20;6.03;;;10.90;86.50;;;;;;5023557;28;20033;-72
2022/11/06 00:59:04;;;;;;;15.23;6.38;;;11.00;86.60;;;;;;5025400;28;20393;-72
2022/11/06 01:01:37;;;;;;;13.50;6.53;;;11.00;86.60;;;;;;5016409;28;20072;-74
2022/11/06 01:04:18;;;;;;;15.27;6.40;;;10.90;86.60;;;;;;5022524;28;20034;-72
2022/11/06 01:06:46;;;;;;;15.20;6.75;;;11.00;86.70;;;;;;5019377;28;20118;-72
2022/11/06 01:09:15;;;;;;;14.15;6.30;;;10.90;86.60;;;;;;5018707;28;20040;-74
2022/11/06 01:11:43;;;;;;;13.10;5.85;;;10.90;86.70;;;;;;5029436;28;20045;-73
2022/11/06 01:14:12;;;;;;;14.18;7.03;;;10.90;86.80;;;;;;5023302;28;20099;-77
2022/11/06 01:16:38;;;;;;;14.00;6.15;;;10.90;86.70;;;;;;5021414;28;20091;-74
2022/11/06 01:19:04;;;;;;;13.00;6.28;;;10.90;86.70;;;;;;5024438;28;20056;-73
2022/11/06 01:21:35;;;;;;;14.75;6.43;;;10.90;86.70;;;;;;5046780;28;20450;-74
2022/11/06 01:24:08;;;;;;;11.02;6.03;;;10.90;86.90;;;;;;5044180;28;20182;-73
2022/11/06 01:26:34;;;;;;;14.02;5.80;;;11.00;86.80;;;;;;5044104;28;20081;-80
2022/11/06 01:29:00;;;;;;;13.95;6.32;;;11.00;86.80;;;;;;5040622;28;20048;-74
2022/11/06 01:31:29;;;;;;;14.50;6.63;;;10.90;86.80;;;;;;5044569;28;20029;-73
2022/11/06 01:33:57;;;;;;;13.38;5.30;;;10.90;86.80;;;;;;5042184;28;20119;-72
2022/11/06 01:36:23;;;;;;;13.82;6.43;;;11.00;86.80;;;;;;5048670;28;20048;-73
2022/11/06 01:38:51;;;;;;;12.85;6.18;;;11.00;86.70;;;;;;5043852;28;20029;-74
2022/11/06 01:41:26;;;;;;;13.10;5.63;;;11.00;86.80;;;;;;5042414;28;20037;-73
2022/11/06 01:43:56;;;;;;;12.55;6.28;;;11.10;87.10;;;;;;5037886;28;20036;-73
2022/11/06 01:46:28;;;;;;;12.43;6.53;;;11.00;87.30;;;;;;5040242;28;20075;-76
2022/11/06 01:48:58;;;;;;;13.43;5.97;;;11.00;87.50;;;;;;5038964;28;20485;-75
2022/11/06 01:51:27;;;;;;;16.20;6.93;;;11.00;87.60;;;;;;5044704;28;20033;-74
2022/11/06 01:53:53;;;;;;;14.38;6.55;;;10.90;87.70;;;;;;5043834;28;20045;-73
2022/11/06 01:56:21;;;;;;;14.57;6.05;;;10.90;87.80;;;;;;5035233;28;20025;-73
2022/11/06 01:58:50;;;;;;;14.90;6.05;;;10.90;88.00;;;;;;5041243;28;20538;-74
2022/11/06 02:01:16;;;;;;;12.07;5.63;;;10.90;88.10;;;;;;5043313;28;20044;-75
2022/11/06 02:03:52;;;;;;;17.55;6.63;;;10.90;88.00;;;;;;5037186;28;20033;-74
2022/11/06 02:06:18;;;;;;;17.88;6.15;;;10.90;88.00;;;;;;5027112;28;20072;-74
2022/11/06 02:08:45;;;;;;;12.43;6.10;;;10.90;88.00;;;;;;5022821;28;20469;-73
2022/11/06 02:11:10;;;;;;;12.25;5.78;;;10.90;87.90;;;;;;5042753;28;20474;-74
2022/11/06 02:13:45;;;;;;;15.57;6.10;;;10.90;88.00;;;;;;5022990;28;20064;-74
2022/11/06 02:16:37;;;;;;;14.15;6.90;;;10.90;88.10;;;;;;5042584;28;20041;-76
2022/11/06 02:19:18;;;;;;;9.68;5.20;;;10.90;87.90;;;;;;5038791;28;20123;-74
2022/11/06 02:21:50;;;;;;;14.90;5.78;;;10.90;87.90;;;;;;5025697;28;20053;-73
2022/11/06 02:24:41;;;;;;;14.60;6.07;;;10.90;88.00;;;;;;5021958;28;20041;-72
2022/11/06 02:27:19;;;;;;;16.33;6.35;;;10.90;88.00;;;;;;5023755;28;20053;-74
2022/11/06 02:29:52;;;;;;;14.48;5.47;;;10.90;88.00;;;;;;5025331;28;20522;-74
2022/11/06 02:32:27;;;;;;;13.57;5.40;;;10.90;87.90;;;;;;5023503;28;20034;-75
2022/11/06 02:34:55;;;;;;;11.55;5.65;;;10.90;87.90;;;;;;5020661;28;20057;-74
2022/11/06 02:37:27;;;;;;;11.50;5.55;;;10.90;87.90;;;;;;5004826;28;20504;-75
2022/11/06 02:39:56;;;;;;;14.30;6.00;;;10.90;87.90;;;;;;5021680;28;20033;-74
2022/11/06 02:42:25;;;;;;;11.25;5.25;;;10.90;87.80;;;;;;5022561;28;20042;-72
2022/11/06 02:44:54;;;;;;;12.82;5.35;;;10.90;87.90;;;;;;5027920;28;20029;-73
2022/11/06 02:47:22;;;;;;;11.88;5.45;;;11.00;87.80;;;;;;5014875;28;20580;-72
2022/11/06 02:50:05;;;;;;;11.65;5.15;;;10.90;87.80;;;;;;5002806;28;20120;-73
2022/11/06 02:52:56;;;;;;;10.30;4.68;;;10.90;87.80;;;;;;5018843;28;20044;-73
2022/11/06 02:55:34;;;;;;;14.63;5.13;;;11.00;87.70;;;;;;5007568;28;20056;-73
2022/11/06 02:58:05;;;;;;;13.55;5.78;;;11.00;87.80;;;;;;5002576;28;20044;-74
2022/11/06 03:00:32;;;;;;;12.52;5.65;;;11.00;87.80;;;;;;5021963;28;20067;-74
2022/11/06 03:03:31;;;;;;;10.73;5.13;;;10.90;87.80;;;;;;5021231;28;20124;-73
2022/11/06 03:05:59;;;;;;;14.30;5.10;;;11.00;87.80;;;;;;5021559;28;20049;-75
2022/11/06 03:08:37;;;;;;;12.98;5.57;;;10.90;87.70;;;;;;5024168;28;20030;-77
2022/11/06 03:11:29;;;;;;;13.10;5.72;;;10.90;87.90;;;;;;5027728;28;20037;-74
2022/11/06 03:14:18;;;;;;;13.90;5.88;;;10.90;88.00;;;;;;5020203;28;20030;-75
2022/11/06 03:17:08;;;;;;;14.15;4.90;;;10.90;87.90;;;;;;5025425;28;20080;-74
2022/11/06 03:19:43;;;;;;;16.77;5.78;;;10.90;87.90;;;;;;5006082;28;20057;-73
2022/11/06 03:22:40;;;;;;;15.52;4.90;;;10.90;87.80;;;;;;5022209;28;20037;-74
2022/11/06 03:25:18;;;;;;;15.45;5.47;;;10.80;88.00;;;;;;5018747;28;20103;-76
2022/11/06 03:27:57;;;;;;;11.05;4.82;;;10.70;88.10;;;;;;5026106;28;20025;-73
2022/11/06 03:30:23;;;;;;;9.73;4.65;;;10.80;88.20;;;;;;5025869;28;20068;-73
2022/11/06 03:33:01;;;;;;;11.82;5.57;;;10.80;88.10;;;;;;5022552;28;20481;-74
2022/11/06 03:35:39;;;;;;;11.90;4.78;;;10.80;88.10;;;;;;5014784;28;20033;-75
2022/11/06 03:38:11;;;;;;;13.98;5.05;;;10.80;88.00;;;;;;5020173;28;20478;-77
2022/11/06 03:40:43;;;;;;;12.98;5.30;;;10.80;88.10;;;;;;5022321;28;20457;-74
2022/11/06 03:43:11;;;;;;;9.38;4.78;;;10.80;88.00;;;;;;5024454;28;20547;-74
2022/11/06 03:45:40;;;;;;;9.40;4.75;;;10.80;88.00;;;;;;5025063;28;20041;-73
2022/11/06 03:48:30;;;;;;;14.30;5.45;;;10.80;87.90;;;;;;5024103;28;20037;-75
2022/11/06 03:51:28;;;;;;;11.20;4.95;;;10.80;88.00;;;;;;5022461;28;20721;-73
2022/11/06 03:54:03;;;;;;;13.85;5.38;;;10.80;87.70;;;;;;5007847;28;20119;-73
2022/11/06 03:56:40;;;;;;;12.00;5.57;;;10.80;87.70;;;;;;5024838;28;20125;-74
2022/11/06 03:59:08;;;;;;;15.02;5.25;;;10.80;87.70;;;;;;5016430;28;20179;-74
2022/11/06 04:01:38;;;;;;;15.57;5.20;;;10.80;87.80;;;;;;5013775;28;20042;-75
2022/11/06 04:04:22;;;;;;;11.50;5.28;;;10.80;87.80;;;;;;5017608;28;20030;-72
2022/11/06 04:06:56;;;;;;;13.00;5.10;;;10.80;87.80;;;;;;5019354;28;20409;-72
2022/11/06 04:14:58;;;;;;;11.13;4.25;;;10.80;87.70;;;;;;5026215;28;20091;-75
2022/11/06 04:17:27;;;;;;;13.80;5.25;;;10.80;87.70;;;;;;5025847;28;20034;-75
2022/11/06 04:20:00;;;;;;;12.90;4.28;;;10.80;87.70;;;;;;5013896;28;20050;-74
2022/11/06 04:22:58;;;;;;;12.80;5.13;;;10.70;87.60;;;;;;5018372;28;20516;-74
2022/11/06 04:28:10;;;;;;;10.77;4.07;;;10.80;87.40;;;;;;5024650;28;20103;-74
2022/11/06 04:30:51;;;;;;;14.20;4.72;;;10.80;87.30;;;;;;5027226;28;20045;-73
2022/11/06 04:33:45;;;;;;;12.25;4.07;;;10.80;87.30;;;;;;5022906;28;20046;-74
2022/11/06 04:36:33;;;;;;;10.43;4.20;;;10.80;87.40;;;;;;5017577;28;20467;-76
2022/11/06 04:39:31;;;;;;;12.45;4.18;;;10.80;87.20;;;;;;5025004;28;20500;-76
2022/11/06 04:42:04;;;;;;;10.95;4.35;;;10.80;87.30;;;;;;5009942;28;20056;-74
2022/11/06 04:44:33;;;;;;;11.07;4.83;;;10.80;87.20;;;;;;5024437;28;20042;-73
2022/11/06 04:47:02;;;;;;;10.00;4.00;;;10.80;87.20;;;;;;5037273;28;20375;-73
2022/11/06 04:49:31;;;;;;;12.95;4.30;;;10.80;87.30;;;;;;5024921;28;20065;-75
2022/11/06 04:51:58;;;;;;;10.18;4.13;;;10.80;87.20;;;;;;5025838;28;20037;-77
2022/11/06 04:54:25;;;;;;;9.90;3.85;;;10.80;87.20;;;;;;5025318;28;20034;-75
2022/11/06 04:56:50;;;;;;;9.45;3.63;;;10.80;87.30;;;;;;5025219;28;20052;-73
2022/11/06 04:59:17;;;;;;;13.07;4.60;;;10.80;87.30;;;;;;5021751;28;20033;-75
2022/11/06 05:01:44;;;;;;;10.80;4.30;;;10.80;87.30;;;;;;5021094;28;20399;-72
2022/11/06 05:04:10;;;;;;;11.15;3.80;;;10.70;87.30;;;;;;5019687;28;20037;-73
2022/11/06 05:06:36;;;;;;;9.73;3.80;;;10.70;87.50;;;;;;5023683;28;20041;-75
2022/11/06 05:09:02;;;;;;;12.20;4.38;;;10.70;87.50;;;;;;5024287;28;20033;-72
2022/11/06 05:11:27;;;;;;;9.07;3.85;;;10.80;87.60;;;;;;5025080;28;20373;-72
2022/11/06 05:13:53;;;;;;;9.75;4.03;;;10.80;87.50;;;;;;5023413;28;20513;-73
2022/11/06 05:16:19;;;;;;;14.40;4.28;;;10.80;87.50;;;;;;5022662;28;20037;-73
2022/11/06 05:18:44;;;;;;;11.10;4.10;;;10.80;87.60;;;;;;5019982;28;20442;-74
2022/11/06 05:23:54;;;;;;;11.70;4.57;;;10.90;87.40;;;;;;5022540;28;20751;-78
2022/11/06 05:26:20;;;;;;;10.77;4.03;;;10.90;87.20;;;;;;5019736;28;20296;-74
2022/11/06 05:28:46;;;;;;;10.13;3.88;;;11.00;87.10;;;;;;5019415;28;20423;-74
2022/11/06 05:31:11;;;;;;;9.85;3.30;;;10.90;87.10;;;;;;5022187;28;20029;-75
2022/11/06 05:33:37;;;;;;;10.05;3.72;;;11.00;87.00;;;;;;5024107;28;20040;-74
2022/11/06 05:36:04;;;;;;;11.82;4.32;;;11.00;86.90;;;;;;5022716;28;20038;-78
2022/11/06 05:38:31;;;;;;;10.85;3.17;;;11.00;86.90;;;;;;5024558;28;20030;-74
2022/11/06 05:40:56;;;;;;;11.90;3.72;;;11.00;87.00;;;;;;5020554;28;20061;-74
2022/11/06 05:43:22;;;;;;;10.85;4.35;;;11.10;86.80;;;;;;5023162;28;20037;-73
2022/11/06 05:45:48;;;;;;;11.95;3.85;;;11.10;86.80;;;;;;5020681;28;20044;-73
2022/11/06 05:48:13;;;;;;;10.93;3.60;;;11.10;86.70;;;;;;5019432;28;20382;-79
2022/11/06 05:50:39;;;;;;;11.82;3.80;;;11.10;86.60;;;;;;5023391;28;20045;-74
2022/11/06 05:53:05;;;;;;;9.23;3.10;;;11.10;86.60;;;;;;5024229;28;20128;-74
2022/11/06 05:55:30;;;;;;;9.73;3.55;;;11.10;86.60;;;;;;5017512;28;20045;-75
2022/11/06 05:57:56;;;;;;;7.90;3.13;;;11.10;86.60;;;;;;5024117;28;20622;-71
2022/11/06 06:00:21;;;;;;;11.05;3.33;;;11.10;86.60;;;;;;5019437;28;20034;-73
2022/11/06 06:02:47;;;;;;;9.30;3.20;;;11.00;86.50;;;;;;5023043;28;20059;-75
2022/11/06 06:05:13;;;;;;;12.05;3.95;;;11.10;86.40;;;;;;5023543;28;20062;-73
2022/11/06 06:07:39;;;;;;;11.35;3.28;;;11.10;86.40;;;;;;5022782;28;20584;-77
2022/11/06 06:10:06;;;;;;;9.73;3.30;;;11.10;86.30;;;;;;5018026;28;20045;-74
2022/11/06 06:12:32;;;;;;;9.40;3.45;;;11.10;86.30;;;;;;5022699;28;20136;-72
2022/11/06 06:14:57;;;;;;;8.55;3.38;;;11.10;86.30;;;;;;5019766;28;20426;-74
2022/11/06 06:17:23;;;;;;;7.78;3.60;;;11.10;86.20;;;;;;5022628;28;20389;-75
2022/11/06 06:19:48;;;;;;;12.38;3.92;;;11.10;86.10;;;;;;5030134;28;20080;-78
2022/11/06 06:22:14;;;;;;;12.30;3.33;;;11.10;86.20;;;;;;5041555;28;20366;-76
2022/11/06 06:24:40;;;;;;;9.25;3.15;;;11.10;86.10;;;;;;5041724;28;20488;-77
2022/11/06 06:27:07;;;;;;;11.07;2.85;;;11.10;86.20;;;;;;5041745;28;20465;-73
2022/11/06 06:29:33;;;;;;;11.50;3.10;;;11.10;86.00;;;;;;5039540;28;20704;-73
2022/11/06 06:31:58;;;;;;;11.20;3.90;;;11.20;85.90;;;;;;5041615;28;20162;-75
2022/11/06 06:34:24;;;;;;;9.38;3.17;;;11.10;85.80;;;;;;5039010;28;20076;-77
2022/11/06 06:36:51;;;;;;;8.52;3.10;;;11.20;85.60;;;;;;5041174;28;20034;-73
2022/11/06 06:39:20;;;;;;;10.68;3.20;;;11.20;85.60;;;;;;5023410;28;20218;-75
2022/11/06 06:41:47;;;;;;;9.05;3.40;;;11.20;85.60;;;;;;5038354;28;20124;-73
2022/11/06 06:44:14;;;;;;;10.45;3.88;;;11.20;85.50;;;;;;5044747;28;20040;-73
2022/11/06 06:46:40;;;;;;;9.52;3.10;;;11.30;85.50;;;;;;5047195;28;20508;-77
2022/11/06 06:49:06;;;;;;;11.70;3.17;;;11.30;85.40;;;;;;5040357;28;20044;-72
2022/11/06 06:51:31;;;;;;;8.30;2.92;;;11.30;85.30;;;;;;5045431;28;20531;-72
2022/11/06 06:53:57;;;;;;;11.88;3.35;;;11.40;85.10;;;;;;5027826;28;20045;-76
2022/11/06 06:56:23;;;;;;;12.55;3.92;;;11.40;84.90;;;;;;5044588;28;20055;-72
2022/11/06 06:58:51;;;;;;;9.80;2.95;;;11.50;84.90;;;;;;5047795;28;20392;-75
2022/11/06 07:01:17;;;;;;;10.88;3.65;;;11.40;84.90;;;;;;5029534;28;20060;-73
2022/11/06 07:03:43;;;;;;;11.98;3.22;;;11.50;84.70;;;;;;5033341;28;20556;-72
2022/11/06 07:06:08;;;;;;;8.38;3.42;;;11.60;84.50;;;;;;5048116;28;20052;-78
2022/11/06 07:08:34;;;;;;;9.32;2.80;;;11.60;84.20;;;;;;5047959;28;20037;-74
2022/11/06 07:11:02;;;;;;;8.68;2.75;;;11.60;84.20;;;;;;5028404;28;20033;-74
2022/11/06 07:13:28;;;;;;;11.93;2.63;;;11.70;84.20;;;;;;5043065;28;20454;-75
2022/11/06 07:15:53;;;;;;;11.38;3.42;;;11.70;84.10;;;;;;5047395;28;20037;-73
2022/11/06 07:18:19;;;;;;;9.35;2.70;;;11.80;83.70;;;;;;5042522;28;20040;-73
2022/11/06 07:20:44;;;;;;;8.38;2.80;;;11.80;83.60;;;;;;5030498;28;20395;-74
2022/11/06 07:23:10;;;;;;;10.88;3.08;;;11.80;83.40;;;;;;5045892;28;20036;-75
2022/11/06 07:25:36;;;;;;;10.23;3.30;;;11.80;83.40;;;;;;5039312;28;20041;-74
2022/11/06 07:28:06;;;;;;;13.68;3.47;;;11.80;83.30;;;;;;5021670;28;20040;-76
2022/11/06 07:30:33;;;;;;;10.27;3.17;;;11.80;83.30;;;;;;5027615;28;20040;-79
2022/11/06 07:33:00;;;;;;;8.18;3.28;;;11.90;83.20;;;;;;5025145;28;20036;-78
2022/11/06 07:35:27;;;;;;;10.25;2.90;;;11.90;83.20;;;;;;5046732;28;20480;-79
2022/11/06 07:37:52;;;;;;;8.70;3.40;;;11.90;83.10;;;;;;5026552;28;20473;-73
2022/11/06 07:40:18;;;;;;;9.05;3.03;;;11.90;83.00;;;;;;5044620;28;20052;-73
2022/11/06 07:42:44;;;;;;;10.52;3.30;;;11.90;83.10;;;;;;5040358;28;20048;-74
2022/11/06 07:45:09;;;;;;;12.65;3.35;;;12.00;83.00;;;;;;5047598;28;20044;-74
2022/11/06 07:47:35;;;;;;;12.18;3.03;;;11.90;82.90;;;;;;5045897;28;20033;-74
2022/11/06 07:50:01;;;;;;;11.32;3.45;;;11.90;83.00;;;;;;5026231;28;20057;-74
2022/11/06 07:52:26;;;;;;;10.98;3.38;;;12.00;82.90;;;;;;5037059;28;20428;-73
2022/11/06 07:54:52;;;;;;;9.50;3.58;;;12.00;82.80;;;;;;5045913;28;20123;-73
2022/11/06 07:57:18;;;;;;;12.68;3.60;;;12.00;82.80;;;;;;5042778;28;20067;-74
2022/11/06 07:59:43;;;;;;;9.52;3.20;;;12.00;82.80;;;;;;5047681;28;20047;-74
2022/11/06 08:02:11;;;;;;;10.38;3.20;;;12.10;82.70;;;;;;5044910;28;20486;-77
2022/11/06 08:04:37;;;;;;;9.48;3.53;;;12.10;82.70;;;;;;5037165;28;20525;-75
2022/11/06 08:07:03;;;;;;;11.93;3.33;;;12.20;82.50;;;;;;5045944;28;20048;-74
2022/11/06 08:09:29;;;;;;;10.35;3.00;;;12.30;82.30;;;;;;5037054;28;20717;-73
2022/11/06 08:11:54;;;;;;;11.57;3.10;;;12.20;81.90;;;;;;5041033;28;20380;-74
2022/11/06 08:14:20;;;;;;;7.38;3.00;;;12.30;81.90;;;;;;5045344;28;20033;-71
2022/11/06 08:16:46;;;;;;;9.25;3.30;;;12.30;81.90;;;;;;5047229;28;20045;-73
2022/11/06 08:19:12;;;;;;;8.57;3.13;;;12.30;81.60;;;;;;5052879;28;20079;-72
2022/11/06 08:21:37;;;;;;;9.48;3.05;;;12.40;81.70;;;;;;5046275;28;20048;-74
2022/11/06 08:24:04;;;;;;;8.90;3.03;;;12.40;81.60;;;;;;5045762;28;20033;-72
2022/11/06 08:26:30;;;;;;;12.18;3.17;;;12.30;81.60;;;;;;5044364;28;20088;-75
2022/11/06 08:28:56;;;;;;;8.95;2.50;;;12.30;81.70;;;;;;5029227;28;20106;-72
2022/11/06 08:31:22;;;;;;;9.35;2.80;;;12.30;81.70;;;;;;5028055;28;20033;-73
2022/11/06 08:33:48;;;;;;;12.88;3.85;;;12.30;81.80;;;;;;5028680;28;20037;-75
2022/11/06 08:36:14;;;;;;;10.18;3.30;;;12.20;81.80;;;;;;5042912;28;20047;-78
2022/11/06 08:38:40;;;;;;;8.60;3.60;;;12.30;81.60;;;;;;5044175;28;20040;-74
2022/11/06 08:41:08;;;;;;;13.93;6.93;;;12.40;81.60;;;;;;5045007;28;20553;-74
2022/11/06 08:43:33;;;;;;;14.82;6.38;;;12.40;81.60;;;;;;5038661;28;20041;-73
2022/11/06 08:45:59;;;;;;;13.15;4.80;;;12.40;81.40;;;;;;5021020;28;20110;-76
2022/11/06 08:48:25;;;;;;;11.30;4.22;;;12.50;81.30;;;;;;5042288;28;20029;-72
2022/11/06 08:50:50;;;;;;;11.32;5.00;;;12.50;81.20;;;;;;5043907;28;20393;-74
2022/11/06 08:53:16;;;;;;;11.07;3.40;;;12.60;81.30;;;;;;5041792;28;20039;-78
2022/11/06 08:55:42;;;;;;;11.40;4.07;;;12.60;81.20;;;;;;5029314;28;20024;-76
2022/11/06 08:58:08;;;;;;;13.20;7.63;;;12.60;81.10;;;;;;5038526;28;20048;-76
2022/11/06 09:00:34;;;;;;;14.13;8.07;;;12.60;81.30;;;;;;5039832;28;20042;-76
2022/11/06 09:03:05;;;;;;;25.42;17.23;;;12.60;81.20;;;;;;5039356;28;20025;-77
2022/11/06 09:05:30;;;;;;;15.23;8.80;;;12.60;81.20;;;;;;5036675;28;20052;-77
2022/11/06 09:07:57;;;;;;;13.88;6.25;;;12.60;81.20;;;;;;5038630;28;20037;-77
2022/11/06 09:10:23;;;;;;;11.77;4.80;;;12.50;81.00;;;;;;5043617;28;20524;-76
2022/11/06 09:12:49;;;;;;;12.88;4.15;;;12.50;81.00;;;;;;5018938;28;20124;-77
2022/11/06 09:15:15;;;;;;;7.70;3.50;;;12.50;81.10;;;;;;5038003;28;20113;-76
2022/11/06 09:17:45;;;;;;;8.80;3.55;;;12.50;81.20;;;;;;5038367;28;20116;-81
2022/11/06 09:20:12;;;;;;;11.30;3.63;;;12.50;81.20;;;;;;5039536;28;20056;-77
2022/11/06 09:22:37;;;;;;;7.32;2.95;;;12.40;81.20;;;;;;5036463;28;20037;-76
2022/11/06 09:25:04;;;;;;;11.73;3.35;;;12.40;81.20;;;;;;5037806;28;20036;-78
2022/11/06 09:27:30;;;;;;;9.90;4.00;;;12.40;81.30;;;;;;5014352;28;20124;-76
2022/11/06 09:29:56;;;;;;;18.23;11.60;;;12.40;81.30;;;;;;5037704;28;20493;-80
2022/11/06 09:32:22;;;;;;;20.55;12.23;;;12.40;81.50;;;;;;5040213;28;20048;-76
2022/11/06 09:34:48;;;;;;;23.05;14.43;;;12.30;81.70;;;;;;5035005;28;20504;-78
2022/11/06 09:37:14;;;;;;;19.63;11.55;;;12.20;82.20;;;;;;5036524;28;20033;-85
2022/11/06 09:39:39;;;;;;;19.00;13.23;;;12.30;82.60;;;;;;5042057;28;20102;-83
2022/11/06 09:42:47;;;;;;;17.60;8.52;;;12.20;82.90;;;;;;5042406;28;20432;-79
2022/11/06 09:45:16;;;;;;;11.68;5.88;;;12.20;83.20;;;;;;5034482;28;20135;-78
2022/11/06 09:47:52;;;;;;;12.95;3.85;;;12.20;83.60;;;;;;5033965;28;20034;-77
2022/11/06 09:50:23;;;;;;;11.18;3.05;;;12.20;83.60;;;;;;5036462;28;20040;-76
2022/11/06 09:52:57;;;;;;;12.95;3.40;;;12.20;83.70;;;;;;5033424;28;20036;-80
2022/11/06 09:55:26;;;;;;;10.20;3.70;;;12.20;83.50;;;;;;5036130;28;20040;-79
2022/11/06 09:57:57;;;;;;;14.68;3.47;;;12.20;83.60;;;;;;5017216;28;20540;-77
2022/11/06 10:00:23;;;;;;;15.38;3.28;;;12.20;83.40;;;;;;5020192;28;20449;-77
2022/11/06 10:02:51;;;;;;;8.18;3.08;;;12.20;83.50;;;;;;5021822;28;20032;-79
2022/11/06 10:05:35;;;;;;;10.93;3.65;;;12.10;83.50;;;;;;5045315;28;20048;-76
2022/11/06 10:08:12;;;;;;;12.48;4.72;;;12.20;84.00;;;;;;5044334;28;20039;-79
2022/11/06 10:10:45;;;;;;;24.30;13.27;;;12.10;84.20;;;;;;5046249;28;20487;-77
2022/11/06 10:13:27;;;;;;;34.65;24.60;;;12.10;84.30;;;;;;5020819;28;20045;-76
2022/11/06 10:15:58;;;;;;;18.45;8.20;;;12.10;84.40;;;;;;5023891;28;20022;-83
2022/11/06 10:18:53;;;;;;;16.10;6.15;;;12.10;84.50;;;;;;5042215;28;20060;-77
2022/11/06 10:21:24;;;;;;;14.50;8.27;;;12.10;84.40;;;;;;5024388;28;20126;-78
2022/11/06 10:23:58;;;;;;;7.72;3.38;;;12.20;84.30;;;;;;5045384;28;20115;-77
2022/11/06 10:26:39;;;;;;;9.43;2.97;;;12.20;84.20;;;;;;5041376;28;20045;-78
2022/11/06 10:29:11;;;;;;;11.38;3.47;;;12.30;83.70;;;;;;5039760;28;20048;-79
2022/11/06 10:32:18;;;;;;;11.10;4.10;;;12.30;83.20;;;;;;5038734;28;20112;-77
2022/11/06 10:34:48;;;;;;;13.43;4.90;;;12.40;82.90;;;;;;5044950;28;20053;-75
2022/11/06 10:37:35;;;;;;;8.05;3.22;;;12.50;83.00;;;;;;5038725;28;20034;-80
2022/11/06 10:40:04;;;;;;;11.00;3.00;;;12.50;82.10;;;;;;5040764;28;20059;-76
2022/11/06 10:42:40;;;;;;;10.25;3.13;;;12.60;82.00;;;;;;5040827;28;20037;-77
2022/11/06 10:45:16;;;;;;;13.13;3.50;;;12.60;81.60;;;;;;5041982;28;20083;-76
2022/11/06 10:47:52;;;;;;;13.07;3.05;;;12.60;81.30;;;;;;5040982;28;20095;-79
2022/11/06 10:50:18;;;;;;;9.73;2.83;;;12.70;81.00;;;;;;5047569;28;20060;-76
2022/11/06 10:52:56;;;;;;;9.98;2.88;;;12.70;80.70;;;;;;5026346;28;20546;-75
2022/11/06 10:55:50;;;;;;;12.13;3.60;;;12.80;80.60;;;;;;5030392;28;20037;-78
2022/11/06 10:58:17;;;;;;;9.98;2.83;;;12.90;80.50;;;;;;5045963;28;20037;-78
2022/11/06 11:00:43;;;;;;;9.55;3.10;;;13.00;79.90;;;;;;5044178;28;20130;-77
2022/11/06 11:03:27;;;;;;;8.13;2.95;;;13.00;79.80;;;;;;5027510;28;20033;-77
2022/11/06 11:05:54;;;;;;;11.45;3.20;;;12.90;79.70;;;;;;5049661;28;20068;-74
2022/11/06 11:08:48;;;;;;;9.68;3.25;;;12.90;80.10;;;;;;5045769;28;20479;-79
2022/11/06 11:11:16;;;;;;;10.30;3.33;;;12.90;80.50;;;;;;5037070;28;20029;-79
2022/11/06 11:14:05;;;;;;;12.02;3.53;;;12.90;80.90;;;;;;5044958;28;20488;-78
2022/11/06 11:16:43;;;;;;;14.02;4.10;;;12.90;81.10;;;;;;5034168;28;20040;-75
2022/11/06 11:19:26;;;;;;;11.93;5.45;;;12.80;81.30;;;;;;5037719;28;20041;-77
2022/11/06 11:21:57;;;;;;;8.70;2.92;;;12.80;81.90;;;;;;5023448;28;20706;-74
2022/11/06 11:24:23;;;;;;;11.13;4.72;;;12.70;82.30;;;;;;5023977;28;20041;-75
2022/11/06 11:27:04;;;;;;;10.85;4.70;;;12.60;82.80;;;;;;5029131;28;20049;-76
2022/11/06 11:29:46;;;;;;;8.63;2.72;;;12.60;83.20;;;;;;5022947;28;20037;-75
2022/11/06 11:32:18;;;;;;;10.93;3.50;;;12.50;83.40;;;;;;5025512;28;20038;-76
2022/11/06 11:34:51;;;;;;;10.68;3.20;;;12.40;84.00;;;;;;5029553;28;20036;-76
2022/11/06 11:37:34;;;;;;;10.25;3.05;;;12.30;84.60;;;;;;5027027;28;20045;-75
2022/11/06 11:40:21;;;;;;;10.40;3.53;;;12.20;85.20;;;;;;5021729;28;20127;-75
2022/11/06 11:42:47;;;;;;;11.35;3.45;;;12.10;85.70;;;;;;5022421;28;20038;-75
2022/11/06 11:45:16;;;;;;;8.63;3.13;;;12.10;85.90;;;;;;5020111;28;20041;-77
2022/11/06 11:47:48;;;;;;;11.55;3.55;;;12.00;86.30;;;;;;5025132;28;20488;-76
2022/11/06 11:50:33;;;;;;;10.10;3.38;;;11.90;86.50;;;;;;5028267;28;20056;-78
2022/11/06 11:53:19;;;;;;;9.88;3.35;;;11.90;87.00;;;;;;5026099;28;20549;-76
2022/11/06 11:55:49;;;;;;;10.50;4.00;;;11.80;87.30;;;;;;5022403;28;20438;-76
2022/11/06 11:58:25;;;;;;;12.70;4.00;;;11.80;87.70;;;;;;5022970;28;20048;-78
2022/11/06 12:01:00;;;;;;;13.65;4.30;;;11.70;87.60;;;;;;5025632;28;20044;-79
2022/11/06 12:03:39;;;;;;;13.25;4.07;;;11.60;88.00;;;;;;5018019;28;20175;-80
2022/11/06 12:06:11;;;;;;;12.48;3.90;;;11.60;88.00;;;;;;5026606;28;20042;-79
2022/11/06 12:08:43;;;;;;;13.85;5.10;;;11.50;88.10;;;;;;5022506;28;20100;-78
2022/11/06 12:11:14;;;;;;;17.27;7.38;;;11.50;88.40;;;;;;5021320;28;20034;-78
2022/11/06 12:13:40;;;;;;;11.73;4.55;;;11.40;88.50;;;;;;5021042;28;20042;-81
2022/11/06 12:16:15;;;;;;;16.27;5.20;;;11.40;88.60;;;;;;5034514;28;20038;-78
2022/11/06 12:18:47;;;;;;;12.07;4.80;;;11.30;88.80;;;;;;5024064;28;20120;-78
2022/11/06 12:21:30;;;;;;;11.07;4.70;;;11.20;88.90;;;;;;5025412;28;20075;-80
2022/11/06 12:23:58;;;;;;;10.82;4.20;;;11.10;89.20;;;;;;5001415;28;20045;-80
2022/11/06 12:26:50;;;;;;;12.45;4.82;;;11.10;88.90;;;;;;5024010;28;20053;-81
2022/11/06 12:29:23;;;;;;;11.95;3.92;;;11.10;89.30;;;;;;5026490;28;20046;-78
2022/11/06 12:31:58;;;;;;;11.73;4.10;;;11.10;89.20;;;;;;5008703;28;20034;-79
2022/11/06 12:34:36;;;;;;;10.80;4.28;;;11.10;89.10;;;;;;5025283;28;20421;-79
2022/11/06 12:37:01;;;;;;;10.23;4.40;;;11.00;89.20;;;;;;5022002;28;20087;-77
2022/11/06 12:39:31;;;;;;;11.18;4.35;;;10.90;89.10;;;;;;5006178;28;20433;-78
2022/11/06 12:41:57;;;;;;;11.60;4.07;;;10.90;88.90;;;;;;5022999;28;20084;-78
2022/11/06 12:44:23;;;;;;;9.25;4.40;;;10.90;89.00;;;;;;5006972;28;20061;-78
2022/11/06 12:46:58;;;;;;;9.38;3.85;;;10.90;89.20;;;;;;5026094;28;20111;-79
2022/11/06 12:49:41;;;;;;;8.45;4.32;;;10.90;89.30;;;;;;5006430;28;20049;-80
2022/11/06 12:52:22;;;;;;;11.00;3.83;;;10.80;88.90;;;;;;5018113;28;20041;-82
2022/11/06 12:55:09;;;;;;;7.32;3.80;;;10.70;89.10;;;;;;5019911;28;20045;-76
2022/11/06 12:57:49;;;;;;;8.55;3.50;;;10.70;89.00;;;;;;5013466;28;20057;-77
2022/11/06 13:00:40;;;;;;;11.02;3.95;;;10.60;89.10;;;;;;5020312;28;20034;-78
2022/11/06 13:03:30;;;;;;;10.45;4.28;;;10.60;89.20;;;;;;5019423;28;20090;-77
2022/11/06 13:06:10;;;;;;;9.23;3.42;;;10.60;89.10;;;;;;5001522;28;20030;-78
2022/11/06 13:09:08;;;;;;;11.18;3.72;;;10.50;89.00;;;;;;5016000;28;20609;-78
2022/11/06 13:11:53;;;;;;;11.20;3.33;;;10.50;89.00;;;;;;5001843;28;20477;-78